Time;durP1;ratioP1;P1;durP2;ratioP2;P2;SDS_P1;SDS_P2;PMS_P1;PMS_P2;Temp;Humidity;BMP_temperature;BMP_pressure;BME280_temperature;BME280_humidity;BME280_pressure;Samples;Min_cycle;Max_cycle;Signal;HPM_P1;HPM_P2
2021/04/29 00:01:56;;;;;;;5.30;3.60;;;14.80;56.90;;;;;;5010996;28;20436;-77
2021/04/29 00:04:23;;;;;;;5.10;4.00;;;14.90;57.70;;;;;;5010423;28;20481;-77
2021/04/29 00:06:49;;;;;;;4.57;4.10;;;14.90;57.80;;;;;;5012541;28;20464;-77
2021/04/29 00:09:16;;;;;;;4.53;4.13;;;14.90;58.10;;;;;;5012499;28;20443;-77
2021/04/29 00:11:43;;;;;;;7.53;4.23;;;14.90;59.00;;;;;;4994901;28;20449;-77
2021/04/29 00:14:11;;;;;;;5.10;3.87;;;14.90;58.90;;;;;;5012797;28;20458;-77
2021/04/29 00:16:41;;;;;;;5.47;4.13;;;14.90;59.00;;;;;;5012243;28;20994;-77
2021/04/29 00:19:08;;;;;;;4.30;3.90;;;14.90;59.00;;;;;;5011414;28;20981;-77
2021/04/29 00:21:38;;;;;;;6.27;4.10;;;14.80;59.00;;;;;;5012826;28;20524;-77
2021/04/29 00:24:05;;;;;;;4.17;3.77;;;14.80;59.80;;;;;;5012237;28;20633;-78
2021/04/29 00:26:32;;;;;;;6.03;4.00;;;14.80;59.90;;;;;;5011264;28;20477;-77
2021/04/29 00:28:59;;;;;;;6.90;4.80;;;14.70;60.30;;;;;;5011970;28;20473;-77
2021/04/29 00:31:26;;;;;;;4.80;4.20;;;14.70;60.50;;;;;;5012794;28;20440;-77
2021/04/29 00:33:54;;;;;;;7.10;4.30;;;14.70;60.80;;;;;;5011137;28;20468;-77
2021/04/29 00:36:21;;;;;;;4.20;3.80;;;14.70;60.90;;;;;;5012150;28;20449;-78
2021/04/29 00:38:47;;;;;;;8.03;4.60;;;14.70;60.90;;;;;;5010417;28;20469;-77
2021/04/29 00:41:14;;;;;;;6.07;5.10;;;14.70;61.20;;;;;;5010989;28;20445;-77
2021/04/29 00:43:41;;;;;;;8.20;4.00;;;14.60;61.30;;;;;;5010539;28;20544;-78
2021/04/29 00:46:13;;;;;;;7.00;3.30;;;14.50;62.50;;;;;;5012079;28;20502;-77
2021/04/29 00:48:43;;;;;;;5.63;4.20;;;14.60;62.10;;;;;;5011816;28;20880;-78
2021/04/29 00:51:10;;;;;;;4.60;3.73;;;14.50;62.30;;;;;;5011133;28;20531;-77
2021/04/29 00:53:38;;;;;;;5.17;4.37;;;14.50;62.30;;;;;;5011548;28;20511;-77
2021/04/29 00:56:06;;;;;;;10.83;4.90;;;14.50;62.80;;;;;;5010100;28;20462;-78
2021/04/29 00:58:33;;;;;;;6.13;4.30;;;14.50;62.40;;;;;;5011733;28;20483;-77
2021/04/29 01:01:00;;;;;;;7.23;4.20;;;14.50;62.60;;;;;;5011556;28;20476;-77
2021/04/29 01:03:44;;;;;;;7.23;4.33;;;14.40;62.80;;;;;;5009919;28;20998;-78
2021/04/29 01:06:20;;;;;;;5.13;4.17;;;14.40;63.30;;;;;;5011788;28;20456;-77
2021/04/29 01:09:00;;;;;;;4.80;3.90;;;14.40;63.70;;;;;;5011825;28;20475;-77
2021/04/29 01:11:33;;;;;;;4.80;4.13;;;14.30;63.70;;;;;;4993246;28;20539;-78
2021/04/29 01:14:03;;;;;;;5.10;4.30;;;14.30;64.20;;;;;;5000719;28;20559;-78
2021/04/29 01:16:31;;;;;;;4.60;3.50;;;14.30;64.30;;;;;;5009512;28;20955;-77
2021/04/29 01:18:58;;;;;;;6.80;4.53;;;14.20;65.20;;;;;;5002230;28;20845;-77
2021/04/29 01:21:28;;;;;;;6.00;3.70;;;14.20;64.90;;;;;;4991375;28;20448;-78
2021/04/29 01:24:02;;;;;;;4.73;4.23;;;14.30;64.90;;;;;;4997733;28;20495;-77
2021/04/29 01:26:40;;;;;;;6.50;4.47;;;14.20;65.30;;;;;;5008481;28;20676;-78
2021/04/29 01:29:09;;;;;;;5.17;4.27;;;14.20;65.90;;;;;;5010921;28;21019;-78
2021/04/29 01:31:37;;;;;;;5.40;4.87;;;14.20;65.70;;;;;;5011674;28;20439;-77
2021/04/29 01:34:06;;;;;;;7.50;5.20;;;14.20;65.90;;;;;;5009778;28;20489;-78
2021/04/29 01:36:34;;;;;;;6.20;4.37;;;14.20;66.20;;;;;;5011591;28;20959;-78
2021/04/29 01:39:07;;;;;;;6.87;4.90;;;14.20;66.70;;;;;;5010727;28;20478;-78
2021/04/29 01:41:39;;;;;;;7.37;4.27;;;14.20;66.40;;;;;;5010638;28;20441;-77
2021/04/29 01:44:07;;;;;;;8.27;4.80;;;14.10;66.30;;;;;;5010893;28;20465;-77
2021/04/29 01:46:35;;;;;;;7.03;4.97;;;14.10;66.40;;;;;;5010264;28;20457;-78
2021/04/29 01:49:04;;;;;;;5.60;4.37;;;14.10;67.00;;;;;;5010481;28;20527;-78
2021/04/29 01:51:32;;;;;;;7.93;5.30;;;14.10;66.70;;;;;;5010385;28;21002;-77
2021/04/29 01:54:03;;;;;;;8.13;5.17;;;14.00;67.30;;;;;;5010942;28;20472;-77
2021/04/29 01:56:30;;;;;;;6.00;4.97;;;14.00;67.50;;;;;;5013326;28;20904;-77
2021/04/29 01:58:57;;;;;;;5.90;5.40;;;14.00;67.70;;;;;;5014243;28;20515;-78
2021/04/29 02:01:25;;;;;;;11.30;6.60;;;13.90;67.70;;;;;;5015416;28;20424;-77
2021/04/29 02:03:55;;;;;;;6.03;5.50;;;13.80;68.80;;;;;;5013777;28;20460;-77
2021/04/29 02:06:23;;;;;;;6.50;5.50;;;13.80;68.90;;;;;;5021944;28;20443;-77
2021/04/29 02:08:50;;;;;;;8.17;4.80;;;13.80;69.00;;;;;;5013370;28;20853;-77
2021/04/29 02:11:16;;;;;;;6.93;5.37;;;13.80;69.60;;;;;;5013618;28;20447;-77
2021/04/29 02:13:47;;;;;;;6.60;5.73;;;13.80;69.60;;;;;;5014963;28;20471;-77
2021/04/29 02:16:30;;;;;;;5.60;4.90;;;13.80;69.80;;;;;;5014763;28;20464;-77
2021/04/29 02:19:00;;;;;;;6.97;5.80;;;13.70;70.10;;;;;;5012996;28;20488;-78
2021/04/29 02:21:27;;;;;;;7.10;5.90;;;13.70;70.30;;;;;;5014891;28;20440;-77
2021/04/29 02:23:53;;;;;;;6.83;6.13;;;13.70;70.50;;;;;;5014497;28;20514;-78
2021/04/29 02:26:20;;;;;;;7.43;6.70;;;13.70;70.60;;;;;;5013409;28;20472;-77
2021/04/29 02:28:47;;;;;;;8.50;6.40;;;13.60;70.70;;;;;;5012612;28;21242;-78
2021/04/29 02:31:15;;;;;;;8.43;5.77;;;13.60;71.20;;;;;;5013763;28;20429;-78
2021/04/29 02:33:42;;;;;;;8.33;7.17;;;13.60;71.50;;;;;;5014002;28;20888;-77
2021/04/29 02:36:09;;;;;;;7.20;6.50;;;13.50;72.10;;;;;;5014563;28;20448;-78
2021/04/29 02:38:37;;;;;;;8.43;7.00;;;13.50;72.40;;;;;;5014061;28;20478;-78
2021/04/29 02:41:05;;;;;;;7.90;7.10;;;13.40;72.60;;;;;;5013362;28;20432;-77
2021/04/29 02:43:32;;;;;;;7.90;7.10;;;13.40;73.50;;;;;;5013965;28;20476;-78
2021/04/29 02:45:59;;;;;;;8.60;7.70;;;13.40;73.60;;;;;;5013421;28;20942;-77
2021/04/29 02:48:26;;;;;;;8.33;7.10;;;13.30;73.70;;;;;;5011452;28;20990;-78
2021/04/29 02:50:53;;;;;;;9.00;6.97;;;13.30;73.90;;;;;;5002567;28;20425;-78
2021/04/29 02:53:21;;;;;;;8.37;7.10;;;13.30;74.70;;;;;;5012246;28;20463;-77
2021/04/29 02:55:49;;;;;;;8.07;6.90;;;13.30;75.00;;;;;;5012911;28;20469;-78
2021/04/29 02:58:16;;;;;;;9.40;8.10;;;13.20;75.60;;;;;;5013667;28;20469;-77
2021/04/29 03:00:44;;;;;;;9.43;8.53;;;13.20;76.40;;;;;;5014508;28;20450;-78
2021/04/29 03:03:12;;;;;;;11.97;7.90;;;13.10;76.60;;;;;;5016418;28;20472;-77
2021/04/29 03:05:39;;;;;;;11.07;8.90;;;13.10;76.80;;;;;;5014917;28;20841;-77
2021/04/29 03:08:07;;;;;;;11.70;8.63;;;13.10;76.80;;;;;;4995715;28;20546;-78
2021/04/29 03:10:34;;;;;;;11.33;8.57;;;13.00;77.30;;;;;;5013424;28;20926;-77
2021/04/29 03:13:03;;;;;;;13.27;9.20;;;13.00;78.00;;;;;;5013504;28;20519;-77
2021/04/29 03:15:29;;;;;;;10.83;9.73;;;13.00;78.00;;;;;;5014112;28;20460;-78
2021/04/29 03:17:56;;;;;;;12.47;9.07;;;13.00;78.30;;;;;;5013529;28;20838;-77
2021/04/29 03:20:37;;;;;;;9.80;8.50;;;13.00;78.30;;;;;;5011748;28;20506;-78
2021/04/29 03:23:06;;;;;;;10.67;9.00;;;12.90;78.40;;;;;;5013277;28;20495;-77
2021/04/29 03:25:32;;;;;;;11.17;9.63;;;12.90;79.00;;;;;;5012469;28;20547;-78
2021/04/29 03:27:59;;;;;;;14.17;9.33;;;12.90;78.60;;;;;;5013107;28;20998;-77
2021/04/29 03:30:25;;;;;;;11.63;9.20;;;12.90;79.00;;;;;;5013507;28;20455;-78
2021/04/29 03:32:52;;;;;;;10.70;9.10;;;12.80;79.10;;;;;;5014899;28;20479;-77
2021/04/29 03:35:19;;;;;;;9.75;8.32;;;12.80;79.50;;;;;;5013260;28;20186;-77
2021/04/29 03:37:45;;;;;;;10.10;9.00;;;12.80;79.30;;;;;;5012516;28;20232;-78
2021/04/29 03:40:12;;;;;;;10.77;8.97;;;12.70;80.10;;;;;;5012481;28;20269;-77
2021/04/29 03:42:39;;;;;;;10.75;8.65;;;12.70;80.50;;;;;;5011884;28;20477;-77
2021/04/29 03:45:06;;;;;;;10.70;8.83;;;12.60;80.50;;;;;;5011926;28;20600;-78
2021/04/29 03:47:33;;;;;;;10.15;9.02;;;12.60;81.10;;;;;;5012593;28;20476;-78
2021/04/29 03:49:59;;;;;;;9.70;8.70;;;12.60;81.60;;;;;;5011542;28;20197;-77
2021/04/29 03:52:26;;;;;;;11.65;9.82;;;12.60;81.70;;;;;;5012955;28;20607;-77
2021/04/29 03:54:52;;;;;;;13.25;9.63;;;12.50;81.80;;;;;;5012489;28;20662;-77
2021/04/29 03:57:18;;;;;;;10.00;8.70;;;12.50;82.30;;;;;;5011160;28;20226;-77
2021/04/29 03:59:45;;;;;;;11.52;9.68;;;12.50;82.70;;;;;;5012945;28;20482;-77
2021/04/29 04:02:12;;;;;;;13.32;9.52;;;12.50;83.10;;;;;;5012638;28;20313;-77
2021/04/29 04:04:38;;;;;;;10.40;8.13;;;12.50;82.80;;;;;;5010532;28;20203;-78
2021/04/29 04:07:05;;;;;;;9.75;8.20;;;12.50;83.10;;;;;;5012274;28;20533;-78
2021/04/29 04:09:32;;;;;;;11.48;10.20;;;12.40;83.10;;;;;;5011714;28;20222;-77
2021/04/29 04:11:59;;;;;;;10.23;9.23;;;12.40;83.60;;;;;;5010841;28;20548;-77
2021/04/29 04:14:30;;;;;;;11.00;9.80;;;12.40;83.60;;;;;;5013160;28;20272;-77
2021/04/29 04:16:57;;;;;;;11.18;9.00;;;12.30;84.10;;;;;;5011340;28;20460;-77
2021/04/29 04:19:24;;;;;;;13.50;10.67;;;12.40;84.50;;;;;;5010796;28;20644;-78
2021/04/29 04:21:50;;;;;;;10.20;9.13;;;12.30;84.20;;;;;;5012584;28;20449;-77
2021/04/29 04:24:17;;;;;;;10.57;8.20;;;12.30;84.40;;;;;;5012549;28;20177;-77
2021/04/29 04:26:43;;;;;;;11.98;10.77;;;12.30;85.60;;;;;;5010185;28;20472;-78
2021/04/29 04:29:10;;;;;;;12.05;10.85;;;12.30;85.50;;;;;;5012154;28;20284;-77
2021/04/29 04:31:36;;;;;;;11.43;9.73;;;12.20;85.50;;;;;;5012357;28;20190;-77
2021/04/29 04:34:03;;;;;;;12.17;10.10;;;12.20;85.50;;;;;;5011910;28;20476;-77
2021/04/29 04:36:29;;;;;;;13.10;11.70;;;12.20;86.80;;;;;;4994390;28;20461;-77
2021/04/29 04:38:56;;;;;;;12.82;10.30;;;12.20;86.90;;;;;;4994067;28;20477;-77
2021/04/29 04:41:27;;;;;;;11.23;10.07;;;12.10;87.10;;;;;;5019903;28;20274;-77
2021/04/29 04:43:53;;;;;;;12.40;11.13;;;12.10;87.40;;;;;;5011745;28;20245;-77
2021/04/29 04:46:20;;;;;;;14.55;11.07;;;12.10;88.70;;;;;;5010783;28;20300;-77
2021/04/29 04:48:46;;;;;;;13.75;10.50;;;12.00;89.00;;;;;;4993640;28;20222;-77
2021/04/29 04:51:13;;;;;;;14.88;11.40;;;12.00;89.00;;;;;;5012142;28;20595;-78
2021/04/29 04:53:39;;;;;;;11.68;10.55;;;12.00;90.10;;;;;;5011658;28;20266;-77
2021/04/29 04:56:06;;;;;;;17.88;10.98;;;12.00;90.00;;;;;;5010283;28;20716;-78
2021/04/29 04:58:32;;;;;;;13.20;11.27;;;11.90;90.20;;;;;;5011725;28;20221;-78
2021/04/29 05:00:58;;;;;;;14.63;13.07;;;11.90;90.50;;;;;;5007815;28;20283;-78
2021/04/29 05:03:27;;;;;;;13.25;11.75;;;11.90;90.30;;;;;;5000771;28;20223;-78
2021/04/29 05:05:54;;;;;;;15.18;11.93;;;11.90;90.60;;;;;;5008577;28;20219;-78
2021/04/29 05:08:21;;;;;;;13.70;12.15;;;11.90;90.90;;;;;;5011332;28;20271;-78
2021/04/29 05:10:47;;;;;;;15.63;12.40;;;12.00;90.90;;;;;;5010052;28;20199;-77
2021/04/29 05:13:14;;;;;;;13.18;11.80;;;11.90;90.90;;;;;;5011472;28;20235;-77
2021/04/29 05:15:40;;;;;;;13.70;12.18;;;11.90;91.00;;;;;;5011638;28;20207;-77
2021/04/29 05:18:06;;;;;;;13.38;11.98;;;12.00;91.50;;;;;;5009974;28;20217;-77
2021/04/29 05:20:36;;;;;;;15.60;13.90;;;12.00;91.00;;;;;;5010559;28;20766;-78
2021/04/29 05:23:03;;;;;;;15.95;11.65;;;12.10;90.80;;;;;;5007924;28;20226;-78
2021/04/29 05:25:29;;;;;;;16.13;12.68;;;12.00;90.70;;;;;;5002828;28;20214;-77
2021/04/29 05:28:01;;;;;;;13.00;11.27;;;12.10;90.90;;;;;;5011267;28;20221;-78
2021/04/29 05:30:28;;;;;;;16.33;11.77;;;12.20;90.80;;;;;;5011483;28;20264;-77
2021/04/29 05:32:55;;;;;;;15.20;13.07;;;12.20;90.40;;;;;;5009987;28;20243;-77
2021/04/29 05:35:21;;;;;;;16.65;12.77;;;12.20;90.20;;;;;;5010501;28;20336;-78
2021/04/29 05:37:48;;;;;;;13.90;11.25;;;12.30;90.10;;;;;;5011195;28;20225;-78
2021/04/29 05:40:14;;;;;;;14.38;12.90;;;12.30;90.10;;;;;;5010176;28;20193;-77
2021/04/29 05:42:42;;;;;;;14.75;13.25;;;12.30;90.20;;;;;;5009855;28;20256;-77
2021/04/29 05:45:09;;;;;;;14.15;12.65;;;12.30;90.20;;;;;;5011654;28;20228;-77
2021/04/29 05:47:36;;;;;;;19.33;15.00;;;12.50;89.00;;;;;;5011162;28;20312;-77
2021/04/29 05:50:04;;;;;;;18.00;16.20;;;12.60;87.90;;;;;;5010235;28;20448;-78
2021/04/29 05:53:14;;;;;;;19.83;16.20;;;12.70;88.30;;;;;;5009011;28;20468;-78
2021/04/29 05:56:07;;;;;;;17.40;15.57;;;12.80;87.40;;;;;;5001803;28;20456;-78
2021/04/29 05:58:34;;;;;;;15.93;14.17;;;13.00;87.00;;;;;;5011318;28;20534;-77
2021/04/29 06:01:02;;;;;;;17.80;15.90;;;13.20;86.40;;;;;;5010932;28;20433;-78
2021/04/29 06:03:29;;;;;;;17.63;15.60;;;13.30;85.70;;;;;;5008776;28;20827;-78
2021/04/29 06:05:55;;;;;;;24.30;18.73;;;13.30;84.70;;;;;;5014544;28;20990;-77
2021/04/29 06:08:22;;;;;;;26.73;20.70;;;13.50;84.60;;;;;;4992779;28;20535;-77
2021/04/29 06:10:48;;;;;;;21.80;17.97;;;13.60;84.00;;;;;;5002309;28;20437;-77
2021/04/29 06:13:18;;;;;;;21.17;18.97;;;13.80;83.60;;;;;;5009089;28;20507;-77
2021/04/29 06:15:44;;;;;;;21.37;19.17;;;13.80;82.60;;;;;;5009492;28;20572;-77
2021/04/29 06:18:11;;;;;;;28.57;21.63;;;13.90;81.80;;;;;;5009378;28;20487;-78
2021/04/29 06:20:40;;;;;;;23.90;21.20;;;13.90;81.60;;;;;;5009790;28;20441;-78
2021/04/29 06:23:07;;;;;;;25.10;22.40;;;14.20;81.00;;;;;;5009398;28;20501;-78
2021/04/29 06:25:34;;;;;;;26.73;23.70;;;14.20;80.20;;;;;;5009314;28;20579;-78
2021/04/29 06:28:01;;;;;;;29.80;24.17;;;14.30;79.40;;;;;;5008844;28;21024;-78
2021/04/29 06:30:28;;;;;;;30.93;25.23;;;14.50;77.70;;;;;;5009221;28;20965;-77
2021/04/29 06:32:54;;;;;;;26.00;23.27;;;14.60;77.10;;;;;;5010711;28;20535;-78
2021/04/29 06:35:21;;;;;;;32.37;27.07;;;14.80;76.00;;;;;;5008653;28;23080;-77
2021/04/29 06:37:50;;;;;;;28.57;24.60;;;14.90;74.90;;;;;;5009260;28;20483;-77
2021/04/29 06:40:19;;;;;;;26.73;23.70;;;15.10;74.50;;;;;;5007801;28;20446;-77
2021/04/29 06:42:46;;;;;;;32.33;25.83;;;15.40;72.70;;;;;;5009316;28;20463;-77
2021/04/29 06:45:13;;;;;;;29.60;26.50;;;15.40;71.70;;;;;;5012858;28;20439;-77
2021/04/29 06:47:39;;;;;;;33.40;28.30;;;15.30;72.90;;;;;;5012303;28;20553;-78
2021/04/29 06:50:09;;;;;;;31.07;27.77;;;15.40;71.90;;;;;;5012625;28;20513;-78
2021/04/29 06:52:36;;;;;;;32.80;27.00;;;15.60;72.10;;;;;;5013667;28;20561;-77
2021/04/29 06:55:03;;;;;;;34.47;28.37;;;15.60;71.20;;;;;;5011728;28;20460;-78
2021/04/29 06:57:29;;;;;;;33.70;30.10;;;15.60;70.90;;;;;;5013716;28;20567;-78
2021/04/29 06:59:56;;;;;;;34.13;29.80;;;15.50;72.30;;;;;;5012331;28;21104;-77
2021/04/29 07:02:23;;;;;;;36.97;33.00;;;15.50;71.80;;;;;;5012486;28;20459;-77
2021/04/29 07:04:54;;;;;;;35.87;32.07;;;15.40;71.80;;;;;;5009549;28;20438;-77
2021/04/29 07:07:20;;;;;;;42.07;33.77;;;15.20;73.30;;;;;;5011922;28;20483;-77
2021/04/29 07:09:50;;;;;;;41.63;35.13;;;15.10;73.10;;;;;;5012171;28;20934;-78
2021/04/29 07:12:16;;;;;;;40.57;33.70;;;14.90;73.00;;;;;;5013250;28;20464;-78
2021/04/29 07:14:43;;;;;;;39.70;34.30;;;14.70;75.20;;;;;;5013070;28;20838;-78
2021/04/29 07:17:10;;;;;;;40.83;35.63;;;14.70;75.10;;;;;;5013038;28;20467;-78
2021/04/29 07:19:38;;;;;;;37.73;32.23;;;14.60;74.40;;;;;;5012687;28;20441;-77
2021/04/29 07:22:04;;;;;;;42.90;33.90;;;14.50;75.30;;;;;;5011397;28;20808;-78
2021/04/29 07:24:32;;;;;;;42.53;33.57;;;14.40;74.70;;;;;;5012635;28;20516;-77
2021/04/29 07:27:02;;;;;;;40.23;33.17;;;14.50;75.00;;;;;;5010824;28;20479;-78
2021/04/29 07:29:29;;;;;;;39.83;33.83;;;14.70;74.80;;;;;;5011391;28;20942;-78
2021/04/29 07:31:56;;;;;;;46.17;37.83;;;14.80;74.10;;;;;;5011987;28;20436;-78
2021/04/29 07:34:22;;;;;;;46.73;37.17;;;14.90;73.00;;;;;;5011269;28;20437;-77
2021/04/29 07:36:49;;;;;;;50.30;39.03;;;15.00;72.50;;;;;;4995301;28;20993;-78
2021/04/29 07:39:16;;;;;;;42.83;36.17;;;15.10;71.80;;;;;;4995239;28;20465;-78
2021/04/29 07:41:50;;;;;;;51.07;36.77;;;15.00;70.20;;;;;;5012330;28;20499;-77
2021/04/29 07:44:16;;;;;;;56.90;42.00;;;14.90;70.40;;;;;;4977206;28;20986;-77
2021/04/29 07:46:43;;;;;;;50.70;38.57;;;14.60;70.10;;;;;;4999870;28;20456;-77
2021/04/29 07:49:12;;;;;;;47.03;37.93;;;14.40;70.40;;;;;;5006587;28;20476;-77
2021/04/29 07:51:39;;;;;;;45.50;40.00;;;14.20;71.90;;;;;;5012355;28;20440;-78
2021/04/29 07:54:06;;;;;;;46.60;36.33;;;14.00;73.60;;;;;;5009714;28;21060;-78
2021/04/29 07:56:34;;;;;;;47.27;38.93;;;13.90;72.80;;;;;;5012101;28;20492;-77
2021/04/29 07:59:01;;;;;;;45.07;37.23;;;13.90;72.80;;;;;;5010373;28;20504;-78
2021/04/29 08:01:29;;;;;;;55.37;40.33;;;13.90;72.70;;;;;;5013522;28;20871;-78
2021/04/29 08:03:56;;;;;;;45.47;36.87;;;14.20;72.80;;;;;;5012825;28;20890;-78
2021/04/29 08:06:28;;;;;;;47.37;38.03;;;14.60;72.10;;;;;;5010789;28;20982;-77
2021/04/29 08:08:56;;;;;;;45.60;36.20;;;14.80;70.70;;;;;;5012399;28;20994;-77
2021/04/29 08:11:23;;;;;;;44.60;37.60;;;15.00;69.20;;;;;;5012406;28;20503;-77
2021/04/29 08:13:52;;;;;;;50.30;40.17;;;15.10;69.50;;;;;;5011638;28;20461;-78
2021/04/29 08:16:19;;;;;;;44.97;37.47;;;15.20;68.10;;;;;;5011102;28;20526;-78
2021/04/29 08:18:48;;;;;;;45.97;36.97;;;15.30;67.90;;;;;;5007813;28;20484;-78
2021/04/29 08:21:15;;;;;;;46.87;37.60;;;15.30;67.60;;;;;;5011031;28;20530;-77
2021/04/29 08:23:42;;;;;;;44.80;38.17;;;15.50;68.00;;;;;;5011207;28;21081;-78
2021/04/29 08:26:10;;;;;;;45.43;36.87;;;15.60;67.20;;;;;;5010849;28;20541;-78
2021/04/29 08:28:37;;;;;;;42.90;37.97;;;15.70;66.60;;;;;;5012243;28;20485;-78
2021/04/29 08:31:04;;;;;;;45.20;36.40;;;15.70;65.40;;;;;;5012377;28;20433;-78
2021/04/29 08:33:33;;;;;;;45.57;37.00;;;15.70;65.70;;;;;;5012223;28;20523;-77
2021/04/29 08:36:00;;;;;;;46.00;38.97;;;15.40;64.70;;;;;;5011420;28;20464;-77
2021/04/29 08:38:26;;;;;;;43.20;38.43;;;15.40;67.10;;;;;;5003834;28;20567;-77
2021/04/29 08:40:53;;;;;;;43.30;38.47;;;15.30;66.40;;;;;;5011056;28;20452;-78
2021/04/29 08:43:19;;;;;;;44.80;35.77;;;15.10;67.00;;;;;;5011748;28;20464;-78
2021/04/29 08:45:49;;;;;;;45.93;36.37;;;14.80;66.50;;;;;;5011048;28;20453;-77
2021/04/29 08:48:21;;;;;;;46.90;39.40;;;14.70;67.90;;;;;;5010579;28;20538;-77
2021/04/29 08:50:51;;;;;;;44.43;36.10;;;14.40;68.80;;;;;;5009818;28;20441;-78
2021/04/29 08:53:18;;;;;;;47.73;36.37;;;14.40;69.70;;;;;;5011410;28;20468;-78
2021/04/29 08:55:45;;;;;;;47.67;36.40;;;14.20;70.50;;;;;;5011328;28;21009;-78
2021/04/29 08:58:11;;;;;;;45.33;34.27;;;14.20;69.20;;;;;;5011523;28;20547;-78
2021/04/29 09:00:39;;;;;;;46.17;36.60;;;14.10;70.10;;;;;;5012259;28;20511;-77
2021/04/29 09:03:07;;;;;;;47.30;36.20;;;14.10;68.40;;;;;;5010554;28;20475;-78
2021/04/29 09:05:35;;;;;;;42.53;33.33;;;14.20;68.80;;;;;;5009548;28;20464;-77
2021/04/29 09:08:09;;;;;;;38.60;32.90;;;14.50;66.50;;;;;;4990428;28;20469;-78
2021/04/29 09:10:42;;;;;;;35.63;31.10;;;14.50;65.00;;;;;;5010679;28;20536;-77
2021/04/29 09:13:20;;;;;;;42.23;33.37;;;14.50;66.30;;;;;;5010355;28;20994;-78
2021/04/29 09:16:03;;;;;;;40.07;33.77;;;14.50;65.40;;;;;;5010207;28;20483;-77
2021/04/29 09:18:33;;;;;;;41.77;33.90;;;14.70;65.10;;;;;;5003482;28;20792;-77
2021/04/29 09:21:13;;;;;;;38.20;29.77;;;14.70;64.90;;;;;;5008211;28;20441;-78
2021/04/29 09:24:06;;;;;;;39.33;32.60;;;14.90;65.10;;;;;;4981577;28;20462;-77
2021/04/29 09:26:40;;;;;;;35.57;30.73;;;15.00;63.30;;;;;;5005266;28;21047;-77
2021/04/29 09:29:09;;;;;;;41.07;33.13;;;15.00;62.90;;;;;;5010532;28;20531;-78
2021/04/29 09:31:43;;;;;;;41.80;29.73;;;15.10;63.50;;;;;;5010470;28;20507;-77
2021/04/29 09:34:11;;;;;;;29.60;25.33;;;15.30;62.00;;;;;;5009910;28;20467;-77
2021/04/29 09:36:43;;;;;;;30.03;24.47;;;15.60;58.90;;;;;;5011758;28;20480;-77
2021/04/29 09:39:14;;;;;;;32.67;27.87;;;15.90;58.30;;;;;;4993461;28;20477;-78
2021/04/29 09:41:46;;;;;;;34.37;25.97;;;16.10;57.70;;;;;;5009388;28;20446;-78
2021/04/29 09:44:18;;;;;;;28.63;24.80;;;16.40;55.80;;;;;;5011027;28;20473;-77
2021/04/29 09:47:00;;;;;;;33.80;29.30;;;16.50;55.90;;;;;;5009704;28;20454;-77
2021/04/29 09:49:35;;;;;;;30.37;26.93;;;16.30;55.60;;;;;;5009743;28;20441;-78
2021/04/29 09:52:15;;;;;;;32.17;25.77;;;16.00;56.00;;;;;;5010332;28;20451;-77
2021/04/29 09:54:45;;;;;;;27.93;23.90;;;15.80;54.90;;;;;;5011492;28;20939;-78
2021/04/29 09:57:16;;;;;;;30.30;24.70;;;15.60;55.90;;;;;;5008861;28;20465;-77
2021/04/29 09:59:48;;;;;;;34.17;26.00;;;15.70;56.10;;;;;;5011718;28;20491;-78
2021/04/29 10:02:16;;;;;;;33.10;25.40;;;15.80;56.70;;;;;;5009862;28;20457;-77
2021/04/29 10:04:50;;;;;;;33.37;28.87;;;16.00;55.90;;;;;;5010462;28;20479;-78
2021/04/29 10:07:18;;;;;;;35.83;26.47;;;15.80;55.20;;;;;;5009363;28;20544;-77
2021/04/29 10:09:44;;;;;;;27.70;24.70;;;15.50;56.40;;;;;;5011075;28;20436;-77
2021/04/29 10:12:13;;;;;;;31.37;26.77;;;15.20;58.50;;;;;;5008757;28;20453;-78
2021/04/29 10:14:41;;;;;;;32.67;29.13;;;15.10;58.90;;;;;;4994867;28;20440;-78
2021/04/29 10:17:09;;;;;;;35.17;28.17;;;14.80;59.50;;;;;;5012899;28;20537;-78
2021/04/29 10:19:48;;;;;;;36.73;27.70;;;14.70;60.50;;;;;;4997136;28;20488;-78
2021/04/29 10:22:16;;;;;;;33.70;29.80;;;14.70;62.00;;;;;;4996590;28;20459;-78
2021/04/29 10:24:47;;;;;;;29.10;22.73;;;14.50;66.00;;;;;;5013591;28;20444;-77
2021/04/29 10:27:22;;;;;;;28.37;24.20;;;14.20;67.80;;;;;;5012657;28;20456;-77
2021/04/29 10:29:49;;;;;;;30.87;25.20;;;13.90;73.50;;;;;;5014444;28;20850;-78
2021/04/29 10:32:16;;;;;;;33.43;26.57;;;13.80;73.50;;;;;;5013040;28;20544;-78
2021/04/29 10:34:48;;;;;;;23.73;16.97;;;13.60;77.50;;;;;;4996949;28;20448;-78
2021/04/29 10:37:20;;;;;;;16.00;12.70;;;13.10;72.00;;;;;;4996407;28;20538;-78
2021/04/29 10:39:57;;;;;;;14.00;10.93;;;12.70;73.40;;;;;;5013153;28;20432;-77
2021/04/29 10:42:30;;;;;;;13.45;11.00;;;12.40;74.80;;;;;;5014023;28;20210;-78
2021/04/29 10:44:59;;;;;;;11.75;9.55;;;12.30;74.90;;;;;;5014621;28;20191;-78
2021/04/29 10:47:30;;;;;;;13.82;10.85;;;12.00;77.00;;;;;;5013367;28;20753;-77
2021/04/29 10:50:13;;;;;;;13.18;11.05;;;11.90;80.70;;;;;;5015428;23;20223;-78
2021/04/29 10:53:05;;;;;;;13.73;10.88;;;11.90;86.70;;;;;;5000470;28;20215;-81
2021/04/29 10:55:36;;;;;;;14.95;11.88;;;11.90;85.10;;;;;;4982339;28;20223;-79
2021/04/29 10:58:05;;;;;;;13.98;11.55;;;11.90;83.40;;;;;;4989346;28;20301;-79
2021/04/29 11:00:34;;;;;;;16.00;12.95;;;11.80;85.00;;;;;;4993426;28;20179;-77
2021/04/29 11:03:05;;;;;;;14.57;12.68;;;11.70;89.50;;;;;;4992075;28;20285;-77
2021/04/29 11:05:36;;;;;;;16.02;14.30;;;11.70;88.80;;;;;;4992218;28;20214;-78
2021/04/29 11:08:05;;;;;;;15.55;13.95;;;11.80;90.10;;;;;;4993966;28;20231;-78
2021/04/29 11:10:35;;;;;;;16.27;14.52;;;12.00;91.10;;;;;;4993314;28;20199;-78
2021/04/29 11:13:04;;;;;;;16.50;14.00;;;12.40;91.40;;;;;;4958181;28;20227;-81
2021/04/29 11:15:40;;;;;;;16.93;13.90;;;12.70;86.50;;;;;;4977225;28;20446;-77
2021/04/29 11:18:11;;;;;;;14.57;12.13;;;13.00;87.20;;;;;;4993970;28;20481;-78
2021/04/29 11:20:54;;;;;;;14.60;12.23;;;13.30;79.60;;;;;;4993603;28;20441;-80
2021/04/29 11:23:37;;;;;;;11.80;10.60;;;13.50;78.20;;;;;;4992408;28;20462;-81
2021/04/29 11:26:15;;;;;;;11.00;9.90;;;13.70;73.70;;;;;;4992445;28;20547;-77
2021/04/29 11:28:42;;;;;;;11.00;9.50;;;13.80;74.70;;;;;;4993423;28;20556;-76
2021/04/29 11:31:09;;;;;;;11.33;9.20;;;14.00;71.90;;;;;;4994777;28;20536;-78
2021/04/29 11:33:38;;;;;;;8.97;7.30;;;14.20;69.70;;;;;;4988694;28;20502;-78
2021/04/29 11:36:34;;;;;;;9.93;9.00;;;14.20;67.20;;;;;;4992880;28;21246;-76
2021/04/29 11:39:06;;;;;;;10.00;9.00;;;13.90;67.20;;;;;;4980716;28;20489;-77
2021/04/29 11:41:32;;;;;;;9.57;8.60;;;13.70;69.90;;;;;;4985134;28;20512;-79
2021/04/29 11:44:00;;;;;;;10.80;9.70;;;13.60;70.30;;;;;;4976290;28;20524;-80
2021/04/29 11:46:30;;;;;;;9.83;8.70;;;13.50;70.40;;;;;;4992942;28;20996;-77
2021/04/29 11:49:01;;;;;;;10.67;9.57;;;13.30;71.60;;;;;;4990034;28;20531;-80
2021/04/29 11:51:30;;;;;;;10.33;9.33;;;12.90;73.00;;;;;;4986112;28;21002;-78
2021/04/29 11:54:05;;;;;;;13.60;10.70;;;12.70;75.20;;;;;;4991821;28;20495;-79
2021/04/29 11:56:41;;;;;;;12.10;10.07;;;12.60;77.80;;;;;;4979019;28;20461;-76
2021/04/29 11:59:08;;;;;;;11.25;10.05;;;12.40;78.00;;;;;;4992772;28;20564;-80
2021/04/29 12:01:36;;;;;;;13.93;10.48;;;12.30;77.70;;;;;;4994003;28;20187;-78
2021/04/29 12:04:20;;;;;;;11.57;10.20;;;12.20;77.80;;;;;;4984057;28;20224;-77
2021/04/29 12:06:55;;;;;;;11.73;10.63;;;12.10;77.80;;;;;;4988029;28;20258;-78
2021/04/29 12:09:24;;;;;;;15.82;11.23;;;12.00;77.80;;;;;;4993508;28;20211;-76
2021/04/29 12:12:19;;;;;;;12.75;9.98;;;11.80;78.40;;;;;;4990836;28;20558;-78
2021/04/29 12:14:54;;;;;;;11.60;10.48;;;11.80;79.40;;;;;;4993505;28;20193;-79
2021/04/29 12:17:21;;;;;;;9.93;8.93;;;11.80;81.10;;;;;;4992525;28;20223;-77
2021/04/29 12:19:51;;;;;;;11.23;9.85;;;12.00;78.90;;;;;;4991543;28;20435;-79
2021/04/29 12:22:23;;;;;;;7.32;6.63;;;12.20;79.30;;;;;;4992790;28;21768;-79
2021/04/29 12:24:51;;;;;;;6.88;6.10;;;12.20;73.70;;;;;;4991653;28;20657;-77
2021/04/29 12:27:19;;;;;;;6.07;5.57;;;12.20;74.20;;;;;;4991792;28;20594;-77
2021/04/29 12:30:01;;;;;;;8.07;6.60;;;12.00;73.60;;;;;;4992637;28;20186;-77
2021/04/29 12:32:39;;;;;;;7.07;6.47;;;12.00;74.90;;;;;;4977333;28;20755;-77
2021/04/29 12:35:07;;;;;;;8.88;8.07;;;11.90;74.60;;;;;;4991831;28;20186;-79
2021/04/29 12:37:33;;;;;;;7.50;6.90;;;11.80;75.20;;;;;;4991502;28;20237;-81
2021/04/29 12:40:00;;;;;;;7.45;6.75;;;11.90;76.00;;;;;;4989716;28;20252;-78
2021/04/29 12:42:27;;;;;;;10.38;8.15;;;11.80;76.70;;;;;;4983297;28;20714;-76
2021/04/29 12:45:03;;;;;;;8.18;7.47;;;11.60;77.30;;;;;;4991773;28;20270;-77